BERRYESSA (BER)

Elevation: 456' · PUTAH CR basin · Operator: US Bureau of Reclamation

Provisional data, subject to change.
Query executed Saturday at 3:36:33   clock

Select a sensor type for a plot of data.
Note: Reservoir Flows are daily averages.

Earlier

Date RES ELE    STORAGE    OUTFLOW    INFLOW    PPT INC   
 FEET   AF   CFS   CFS   INCHES  
02/27/2015 412.00 1061504 90 -188 0.00
02/28/2015 412.01 1061665 90 227 0.00
03/01/2015 412.01 1061665 90 134 0.00
03/02/2015 412.01 1061665 90 146 0.00
03/03/2015 412.01 1061665 90 112 0.00
03/04/2015 412.01 1061665 110 149 0.00
03/05/2015 412.01 1061665 120 164 0.00
03/06/2015 412.01 1061665 120 153 0.00
03/07/2015 412.01 1061665 120 164 0.00
03/08/2015 412.00 1061504 120 89 0.00
03/09/2015 412.00 1061504 120 170 0.00
03/10/2015 411.99 1061343 120 39 0.05
03/11/2015 411.97 1061022 120 -3 0.02
03/12/2015 411.98 1061183 120 223 0.00
03/13/2015 411.98 1061183 120 176 0.00
03/14/2015 411.99 1061343 108 228 0.00
03/15/2015 411.96 1060862 100 -93 0.00
03/16/2015 411.96 1060862 100 161 0.00
03/17/2015 411.96 1060862 112 140 0.00
03/18/2015 411.94 1060540 139 33 0.00
03/19/2015 411.93 1060380 171 179 0.00
03/20/2015 411.91 1060059 229 139 0.00
03/21/2015 411.88 1059577 330 148 0.00
03/22/2015 411.84 1058935 360 103 0.00
03/23/2015 -- -- -- -- --
03/24/2015 -- -- -- -- --
03/25/2015 -- -- -- -- --
03/26/2015 -- -- -- -- --
03/27/2015 -- -- -- -- --
03/28/2015 -- -- -- -- --

Later | Latest

Warning! This data is preliminary and subject to revision.

Show BER Map | Plot BER Data | 1 Month BER Data | Real-Time BER Data | BER Info